createdAt,value
2023-04-23T00:00:14.416Z,26.13
2023-04-23T00:02:46.897Z,23.70
2023-04-23T00:05:16.829Z,27.60
2023-04-23T00:07:46.018Z,25.80
2023-04-23T00:10:15.285Z,24.33
2023-04-23T00:12:46.055Z,27.37
2023-04-23T00:15:15.954Z,29.23
2023-04-23T00:17:44.654Z,26.00
2023-04-23T00:20:13.744Z,27.27
2023-04-23T00:22:42.430Z,22.53
2023-04-23T00:25:11.704Z,27.23
2023-04-23T00:27:40.510Z,25.63
2023-04-23T00:30:11.627Z,27.77
2023-04-23T00:32:40.640Z,25.77
2023-04-23T00:35:09.735Z,25.73
2023-04-23T00:37:38.456Z,23.87
2023-04-23T00:40:08.748Z,24.40
2023-04-23T00:42:38.644Z,26.07
2023-04-23T00:45:11.151Z,25.90
2023-04-23T00:47:41.618Z,23.43
2023-04-23T00:50:11.453Z,25.10
2023-04-23T00:52:40.852Z,27.53
2023-04-23T00:55:10.102Z,24.63
2023-04-23T00:57:39.802Z,28.30
2023-04-23T01:00:09.838Z,26.77
2023-04-23T01:02:40.972Z,26.93
2023-04-23T01:05:11.477Z,26.50
2023-04-23T01:07:40.406Z,28.93
2023-04-23T01:10:11.008Z,27.33
2023-04-23T01:12:39.764Z,27.70
2023-04-23T01:15:09.858Z,29.63
2023-04-23T01:17:39.950Z,26.57
2023-04-23T01:20:09.715Z,28.47
2023-04-23T01:22:39.922Z,26.93
2023-04-23T01:25:10.333Z,31.60
2023-04-23T01:27:39.750Z,28.67
2023-04-23T01:30:09.771Z,28.73
2023-04-23T01:32:40.246Z,24.90
2023-04-23T01:35:13.230Z,27.53
2023-04-23T01:37:45.739Z,25.40
2023-04-23T01:40:14.523Z,29.50
2023-04-23T01:42:43.328Z,27.87
2023-04-23T01:45:12.306Z,24.40
2023-04-23T01:47:41.811Z,24.43
2023-04-23T01:50:11.355Z,28.93
2023-04-23T01:52:40.428Z,26.67
2023-04-23T01:55:10.941Z,25.37
2023-04-23T01:57:39.745Z,32.03
2023-04-23T02:00:12.184Z,27.07
2023-04-23T02:02:44.002Z,26.00
2023-04-23T02:05:14.868Z,25.90
2023-04-23T02:07:43.874Z,26.07
2023-04-23T02:10:14.362Z,36.73
2023-04-23T02:12:43.731Z,26.43
2023-04-23T02:15:13.187Z,28.00
2023-04-23T02:17:42.118Z,28.37
2023-04-23T02:20:11.851Z,27.17
2023-04-23T02:22:42.149Z,25.00
2023-04-23T02:25:11.188Z,29.13
2023-04-23T02:27:41.309Z,28.30
2023-04-23T02:30:11.580Z,25.03
2023-04-23T02:32:41.788Z,26.63
2023-04-23T02:35:10.935Z,27.63
2023-04-23T02:37:39.738Z,28.10
2023-04-23T02:40:10.274Z,28.93
2023-04-23T02:42:42.504Z,29.23
2023-04-23T02:45:13.056Z,25.97
2023-04-23T02:47:41.775Z,29.10
2023-04-23T02:50:10.680Z,30.13
2023-04-23T02:52:39.400Z,26.03
2023-04-23T02:55:09.548Z,30.20
2023-04-23T02:57:38.699Z,27.17
2023-04-23T03:00:12.300Z,26.20
2023-04-23T03:02:43.931Z,30.13
2023-04-23T03:05:12.888Z,27.83
2023-04-23T03:07:41.973Z,26.20
2023-04-23T03:10:11.332Z,28.47
2023-04-23T03:12:40.252Z,30.37
2023-04-23T03:15:11.634Z,27.63
2023-04-23T03:17:40.557Z,26.90
2023-04-23T03:20:11.818Z,28.13
2023-04-23T03:22:42.296Z,30.10
2023-04-23T03:25:11.397Z,28.40
2023-04-23T03:27:41.309Z,32.57
2023-04-23T03:30:12.907Z,30.27
2023-04-23T03:32:41.817Z,28.23
2023-04-23T03:35:11.230Z,31.97
2023-04-23T03:37:43.659Z,39.57
2023-04-23T03:40:12.878Z,27.20
2023-04-23T03:42:43.347Z,27.10
2023-04-23T03:45:17.037Z,30.30
2023-04-23T03:47:46.449Z,32.57
2023-04-23T03:50:17.482Z,26.67
2023-04-23T03:52:49.927Z,28.73
2023-04-23T03:55:33.407Z,29.27
2023-04-23T03:58:03.092Z,28.30
2023-04-23T04:00:45.390Z,29.90
2023-04-23T04:03:14.350Z,29.30
2023-04-23T04:05:44.392Z,28.53
2023-04-23T04:08:13.249Z,25.63
2023-04-23T04:10:41.984Z,30.97
2023-04-23T04:13:11.346Z,30.60
2023-04-23T04:15:40.092Z,29.13
2023-04-23T04:18:10.658Z,23.77
2023-04-23T04:20:39.458Z,25.17
2023-04-23T04:23:08.153Z,25.23
2023-04-23T04:25:39.938Z,23.87
2023-04-23T04:28:09.358Z,21.30
2023-04-23T04:30:38.227Z,24.80
2023-04-23T04:33:07.076Z,19.50
2023-04-23T04:35:37.323Z,23.23
2023-04-23T04:38:05.994Z,21.00
2023-04-23T04:40:35.281Z,20.30
2023-04-23T04:43:05.410Z,19.17
2023-04-23T04:45:34.273Z,17.30
2023-04-23T04:48:02.942Z,18.97
2023-04-23T04:50:31.758Z,16.37
2023-04-23T04:53:01.808Z,19.03
2023-04-23T04:55:30.722Z,18.00
2023-04-23T04:57:59.559Z,17.70
2023-04-23T05:00:30.788Z,18.10
2023-04-23T05:02:59.994Z,16.27
2023-04-23T05:05:29.371Z,16.92
2023-04-23T05:08:02.175Z,19.50
2023-04-23T05:10:32.502Z,15.73
2023-04-23T05:13:01.726Z,16.40
2023-04-23T05:15:30.778Z,16.38
2023-04-23T05:17:59.550Z,16.30
2023-04-23T05:20:28.391Z,13.48
2023-04-23T05:22:59.463Z,15.00
2023-04-23T05:25:28.229Z,15.57
2023-04-23T05:27:58.437Z,17.08
2023-04-23T05:30:27.319Z,15.88
2023-04-23T05:32:56.055Z,13.60
2023-04-23T05:35:24.701Z,13.55
2023-04-23T05:37:53.324Z,14.25
2023-04-23T05:40:22.188Z,14.70
2023-04-23T05:42:50.974Z,14.87
2023-04-23T05:45:21.539Z,15.57
2023-04-23T05:47:50.512Z,16.03
2023-04-23T05:50:19.433Z,13.13
2023-04-23T05:52:48.258Z,16.97
2023-04-23T05:55:18.280Z,13.43
2023-04-23T05:57:47.122Z,15.43
2023-04-23T06:00:17.060Z,11.97
2023-04-23T06:02:47.946Z,16.40
2023-04-23T06:05:17.041Z,15.60
2023-04-23T06:07:45.952Z,14.00
2023-04-23T06:10:14.611Z,15.83
2023-04-23T06:12:43.270Z,17.10
2023-04-23T06:15:12.563Z,21.50
2023-04-23T06:17:41.270Z,28.07
2023-04-23T06:20:11.978Z,19.77
2023-04-23T06:22:40.820Z,13.63
2023-04-23T06:25:10.816Z,13.23
2023-04-23T06:27:39.696Z,13.87
2023-04-23T06:30:15.726Z,12.97
2023-04-23T06:32:44.451Z,11.77
2023-04-23T06:35:14.629Z,12.53
2023-04-23T06:37:43.380Z,12.13
2023-04-23T06:40:12.422Z,10.90
2023-04-23T06:42:41.010Z,13.13
2023-04-23T06:45:19.801Z,11.47
2023-04-23T06:47:49.401Z,12.15
2023-04-23T06:50:19.620Z,10.50
2023-04-23T06:52:48.488Z,11.15
2023-04-23T06:55:17.177Z,11.30
2023-04-23T06:57:46.037Z,9.60
2023-04-23T07:00:15.477Z,12.50
2023-04-23T07:02:46.085Z,10.38
2023-04-23T07:05:15.152Z,8.48
2023-04-23T07:07:45.138Z,11.27
2023-04-23T07:10:16.209Z,9.40
2023-04-23T07:12:46.499Z,12.07
2023-04-23T07:15:15.180Z,11.27
2023-04-23T07:17:43.869Z,9.70
2023-04-23T07:20:13.013Z,8.73
2023-04-23T07:22:41.837Z,8.30
2023-04-23T07:25:12.383Z,10.63
2023-04-23T07:27:41.360Z,12.68
2023-04-23T07:30:10.876Z,11.85
2023-04-23T07:32:39.562Z,8.25
2023-04-23T07:35:10.416Z,9.55
2023-04-23T07:37:39.280Z,9.57
2023-04-23T07:40:09.317Z,9.18
2023-04-23T07:42:39.532Z,11.05
2023-04-23T07:45:09.109Z,8.43
2023-04-23T07:47:37.861Z,10.90
2023-04-23T07:50:07.733Z,13.43
2023-04-23T07:52:36.610Z,8.40
2023-04-23T07:55:06.081Z,7.63
2023-04-23T07:57:34.863Z,8.10
2023-04-23T08:00:09.438Z,11.55
2023-04-23T08:02:42.194Z,8.52
2023-04-23T08:05:11.532Z,7.95
2023-04-23T08:07:52.537Z,11.07
2023-04-23T08:10:21.369Z,8.98
2023-04-23T08:12:50.046Z,8.45
2023-04-23T08:15:18.744Z,6.55
2023-04-23T08:17:47.527Z,9.85
2023-04-23T08:20:16.175Z,8.73
2023-04-23T08:22:45.130Z,11.68
2023-04-23T08:25:15.258Z,8.82
2023-04-23T08:27:44.066Z,6.63
2023-04-23T08:30:13.275Z,9.10
2023-04-23T08:32:44.833Z,5.80
2023-04-23T08:35:13.621Z,7.47
2023-04-23T08:37:42.282Z,9.02
2023-04-23T08:40:11.563Z,6.20
2023-04-23T08:42:44.657Z,7.85
2023-04-23T08:45:14.094Z,5.85
2023-04-23T08:47:44.318Z,7.03
2023-04-23T08:50:14.086Z,10.27
2023-04-23T08:52:47.880Z,9.77
2023-04-23T08:55:18.844Z,18.45
2023-04-23T08:57:49.716Z,5.75
2023-04-23T09:00:20.933Z,9.02
2023-04-23T09:02:50.575Z,24.58
2023-04-23T09:05:19.650Z,10.60
2023-04-23T09:07:48.560Z,15.27
2023-04-23T09:10:18.598Z,6.55
2023-04-23T09:12:48.697Z,15.35
2023-04-23T09:15:18.557Z,5.18
2023-04-23T09:17:48.350Z,4.47
2023-04-23T09:20:17.680Z,8.50
2023-04-23T09:22:48.345Z,10.43
2023-04-23T09:25:18.860Z,7.78
2023-04-23T09:27:53.251Z,8.38
2023-04-23T09:30:23.399Z,6.47
2023-04-23T09:32:53.632Z,5.03
2023-04-23T09:35:22.424Z,9.52
2023-04-23T09:37:53.401Z,6.47
2023-04-23T09:40:25.133Z,5.90
2023-04-23T09:42:55.735Z,4.57
2023-04-23T09:45:26.154Z,7.93
2023-04-23T09:47:56.573Z,8.88
2023-04-23T09:50:33.899Z,9.73
2023-04-23T09:53:02.733Z,11.93
2023-04-23T09:55:35.543Z,6.25
2023-04-23T09:58:06.599Z,5.05
2023-04-23T10:00:36.594Z,6.18
2023-04-23T10:03:06.773Z,5.63
2023-04-23T10:05:59.720Z,8.45
2023-04-23T10:08:29.498Z,5.70
2023-04-23T10:11:10.078Z,11.18
2023-04-23T10:13:48.623Z,8.38
2023-04-23T10:16:24.297Z,12.35
2023-04-23T10:19:03.848Z,6.55
2023-04-23T10:21:42.960Z,6.18
2023-04-23T10:24:24.782Z,6.00
2023-04-23T10:26:54.827Z,7.13
2023-04-23T10:29:29.559Z,8.00
2023-04-23T10:32:00.589Z,9.13
2023-04-23T10:34:31.104Z,8.35
2023-04-23T10:37:01.370Z,5.50
2023-04-23T10:39:33.079Z,5.63
2023-04-23T10:42:02.698Z,8.63
2023-04-23T10:47:13.842Z,6.15
2023-04-23T10:49:43.652Z,3.95
2023-04-23T10:52:20.794Z,8.95
2023-04-23T10:54:59.921Z,6.13
2023-04-23T10:57:28.937Z,6.50
2023-04-23T10:59:59.631Z,4.70
2023-04-23T11:02:43.828Z,5.43
2023-04-23T11:05:12.677Z,4.55
2023-04-23T11:07:41.312Z,5.45
2023-04-23T11:10:14.635Z,7.03
2023-04-23T11:12:43.563Z,4.20
2023-04-23T11:15:15.202Z,7.95
2023-04-23T11:18:03.453Z,5.15
2023-04-23T11:20:32.296Z,6.05
2023-04-23T11:23:01.134Z,5.57
2023-04-23T11:25:30.476Z,4.63
2023-04-23T11:27:59.913Z,4.20
2023-04-23T11:30:32.019Z,4.07
2023-04-23T11:33:02.054Z,5.63
2023-04-23T11:35:39.575Z,5.40
2023-04-23T11:38:10.075Z,4.15
2023-04-23T11:40:40.382Z,4.90
2023-04-23T11:43:09.594Z,12.73
2023-04-23T11:45:39.779Z,5.78
2023-04-23T11:48:08.453Z,44.63
2023-04-23T11:50:39.064Z,9.95
2023-04-23T11:53:09.422Z,4.30
2023-04-23T11:55:38.218Z,10.65
2023-04-23T11:58:06.898Z,13.00
2023-04-23T12:00:35.579Z,3.20
2023-04-23T12:03:07.261Z,5.57
2023-04-23T12:05:37.772Z,6.32
2023-04-23T12:08:10.637Z,6.55
2023-04-23T12:10:47.539Z,6.80
2023-04-23T12:13:17.488Z,2.47
2023-04-23T12:15:48.042Z,3.30
2023-04-23T12:18:18.752Z,3.28
2023-04-23T12:20:47.532Z,6.22
2023-04-23T12:23:16.268Z,3.17
2023-04-23T12:25:44.933Z,3.75
2023-04-23T12:28:13.644Z,7.07
2023-04-23T12:30:46.121Z,3.58
2023-04-23T12:33:15.688Z,13.38
2023-04-23T12:35:46.860Z,22.23
2023-04-23T12:38:25.284Z,5.88
2023-04-23T12:40:55.187Z,6.45
2023-04-23T12:43:24.455Z,4.32
2023-04-23T12:45:53.290Z,4.78
2023-04-23T12:48:21.948Z,3.70
2023-04-23T12:50:51.912Z,3.40
2023-04-23T12:53:20.634Z,4.10
2023-04-23T12:55:50.244Z,7.80
2023-04-23T12:58:18.846Z,6.82
2023-04-23T13:00:47.616Z,5.78
2023-04-23T13:03:17.470Z,4.03
2023-04-23T13:05:46.154Z,4.75
2023-04-23T13:08:16.230Z,4.22
2023-04-23T13:10:45.432Z,4.80
2023-04-23T13:13:14.333Z,4.70
2023-04-23T13:15:43.687Z,4.13
2023-04-23T13:18:12.258Z,5.70
2023-04-23T13:20:40.934Z,4.55
2023-04-23T13:23:11.368Z,4.97
2023-04-23T13:25:41.593Z,4.13
2023-04-23T13:28:10.211Z,3.92
2023-04-23T13:30:38.951Z,6.38
2023-04-23T13:33:07.697Z,4.47
2023-04-23T13:35:37.754Z,4.55
2023-04-23T13:38:06.453Z,3.70
2023-04-23T13:40:35.493Z,5.82
2023-04-23T13:43:06.148Z,4.40
2023-04-23T13:45:34.823Z,5.47
2023-04-23T13:48:05.085Z,4.43
2023-04-23T13:50:33.798Z,4.38
2023-04-23T13:53:02.580Z,5.85
2023-04-23T13:55:31.545Z,5.85
2023-04-23T13:58:00.161Z,5.20
2023-04-23T14:00:31.180Z,5.72
2023-04-23T14:03:00.048Z,3.85
2023-04-23T14:05:28.765Z,6.13
2023-04-23T14:07:57.431Z,3.83
2023-04-23T14:10:26.130Z,6.07
2023-04-23T14:12:55.352Z,7.50
2023-04-23T14:15:24.220Z,4.93
2023-04-23T14:17:54.373Z,3.78
2023-04-23T14:20:23.106Z,4.82
2023-04-23T14:22:57.715Z,6.10
2023-04-23T14:25:31.260Z,11.52
2023-04-23T14:28:10.404Z,22.52
2023-04-23T14:30:42.272Z,13.73
2023-04-23T14:33:12.556Z,5.55
2023-04-23T14:35:43.483Z,8.73
2023-04-23T14:38:12.372Z,6.72
2023-04-23T14:40:41.115Z,8.48
2023-04-23T14:43:15.389Z,11.50
2023-04-23T14:45:44.455Z,9.55
2023-04-23T14:48:14.582Z,6.78
2023-04-23T14:50:43.303Z,7.97
2023-04-23T14:53:11.869Z,5.45
2023-04-23T14:55:43.246Z,6.30
2023-04-23T14:58:11.918Z,4.80
2023-04-23T15:00:41.108Z,7.45
2023-04-23T15:03:11.309Z,9.27
2023-04-23T15:05:41.879Z,8.13
2023-04-23T15:08:10.702Z,14.23
2023-04-23T15:10:39.456Z,7.55
2023-04-23T15:13:32.548Z,6.97
2023-04-23T15:16:05.764Z,7.43
2023-04-23T15:18:34.926Z,8.88
2023-04-23T15:21:05.076Z,9.25
2023-04-23T15:23:33.762Z,6.72
2023-04-23T15:26:02.410Z,8.68
2023-04-23T15:28:31.130Z,9.63
2023-04-23T15:31:00.188Z,7.57
2023-04-23T15:33:29.684Z,9.13
2023-04-23T15:35:59.901Z,9.50
2023-04-23T15:38:30.462Z,11.63
2023-04-23T15:40:59.572Z,13.10
2023-04-23T15:43:28.589Z,8.90
2023-04-23T15:45:58.809Z,6.32
2023-04-23T15:48:27.730Z,6.10
2023-04-23T15:50:56.508Z,6.80
2023-04-23T15:53:25.222Z,6.15
2023-04-23T15:55:55.229Z,8.73
2023-04-23T15:58:23.975Z,8.02
2023-04-23T16:00:52.769Z,8.40
2023-04-23T16:03:22.261Z,7.25
2023-04-23T16:05:52.271Z,7.22
2023-04-23T16:08:20.972Z,7.30
2023-04-23T16:10:49.781Z,8.88
2023-04-23T16:13:20.132Z,10.55
2023-04-23T16:15:48.942Z,7.93
2023-04-23T16:18:17.563Z,7.57
2023-04-23T16:20:46.539Z,9.55
2023-04-23T16:23:16.290Z,6.70
2023-04-23T16:25:45.372Z,6.70
2023-04-23T16:28:14.155Z,11.35
2023-04-23T16:30:44.061Z,6.85
2023-04-23T16:33:12.955Z,10.32
2023-04-23T16:35:41.683Z,6.85
2023-04-23T16:38:11.354Z,11.77
2023-04-23T16:40:40.610Z,9.27
2023-04-23T16:43:10.193Z,5.72
2023-04-23T16:45:39.807Z,5.15
2023-04-23T16:48:12.986Z,5.78
2023-04-23T16:50:43.096Z,7.05
2023-04-23T16:53:12.226Z,5.88
2023-04-23T16:55:40.904Z,6.33
2023-04-23T16:58:10.137Z,11.70
2023-04-23T17:00:38.864Z,5.20
2023-04-23T17:03:07.659Z,4.75
2023-04-23T17:05:41.025Z,4.63
2023-04-23T17:08:09.750Z,7.05
2023-04-23T17:10:38.589Z,6.70
2023-04-23T17:13:07.306Z,6.63
2023-04-23T17:15:35.974Z,6.13
2023-04-23T17:18:04.697Z,7.15
2023-04-23T17:20:35.327Z,10.57
2023-04-23T17:23:05.412Z,23.27
2023-04-23T17:25:34.165Z,33.28
2023-04-23T17:28:03.105Z,19.27
2023-04-23T17:30:31.725Z,15.68
2023-04-23T17:33:00.634Z,13.60
2023-04-23T17:35:29.288Z,8.88
2023-04-23T17:37:57.961Z,8.40
2023-04-23T17:40:28.145Z,9.48
2023-04-23T17:42:56.918Z,8.88
2023-04-23T17:45:25.638Z,9.38
2023-04-23T17:47:54.370Z,10.82
2023-04-23T17:50:23.134Z,9.43
2023-04-23T17:52:52.724Z,9.07
2023-04-23T17:55:22.045Z,11.23
2023-04-23T17:57:52.206Z,9.82
2023-04-23T18:00:21.013Z,13.93
2023-04-23T18:02:50.094Z,22.83
2023-04-23T18:05:19.185Z,41.20
2023-04-23T18:07:47.886Z,29.38
2023-04-23T18:10:16.570Z,17.00
2023-04-23T18:12:45.435Z,12.97
2023-04-23T18:15:15.618Z,12.17
2023-04-23T18:17:44.990Z,10.30
2023-04-23T18:20:14.285Z,10.87
2023-04-23T18:22:43.038Z,10.70
2023-04-23T18:25:12.719Z,10.82
2023-04-23T18:27:41.570Z,12.17
2023-04-23T18:30:11.895Z,12.47
2023-04-23T18:32:48.461Z,14.98
2023-04-23T18:35:17.410Z,16.97
2023-04-23T18:37:54.069Z,14.17
2023-04-23T18:40:22.865Z,15.25
2023-04-23T18:42:51.528Z,13.03
2023-04-23T18:45:20.268Z,12.30
2023-04-23T18:47:58.429Z,12.87
2023-04-23T18:50:44.774Z,11.80
2023-04-23T18:53:13.811Z,13.53
2023-04-23T18:55:42.640Z,13.55
2023-04-23T18:58:11.371Z,13.53
2023-04-23T19:00:40.144Z,13.30
2023-04-23T19:03:25.342Z,19.73
2023-04-23T19:05:55.909Z,17.87
2023-04-23T19:08:28.620Z,16.30
2023-04-23T19:10:57.630Z,20.43
2023-04-23T19:13:26.664Z,22.70
2023-04-23T19:15:55.493Z,21.83
2023-04-23T19:18:26.020Z,15.60
2023-04-23T19:20:54.935Z,13.27
2023-04-23T19:23:23.544Z,12.20
2023-04-23T19:25:52.184Z,12.38
2023-04-23T19:28:21.017Z,14.53
2023-04-23T19:30:49.733Z,12.20
2023-04-23T19:33:18.546Z,11.77
2023-04-23T19:35:48.561Z,10.10
2023-04-23T19:38:17.302Z,11.33
2023-04-23T19:40:46.195Z,10.67
2023-04-23T19:43:15.081Z,10.90
2023-04-23T19:45:43.768Z,12.37
2023-04-23T19:48:12.459Z,10.50
2023-04-23T19:50:41.198Z,15.43
2023-04-23T19:53:11.374Z,13.18
2023-04-23T19:55:40.141Z,13.00
2023-04-23T19:58:08.782Z,12.00
2023-04-23T20:00:41.480Z,15.07
2023-04-23T20:03:10.781Z,14.70
2023-04-23T20:05:39.660Z,13.83
2023-04-23T20:08:15.122Z,18.30
2023-04-23T20:10:45.196Z,14.57
2023-04-23T20:13:13.886Z,13.93
2023-04-23T20:15:42.750Z,14.00
2023-04-23T20:18:11.706Z,14.32
2023-04-23T20:20:42.777Z,13.27
2023-04-23T20:23:11.365Z,12.67
2023-04-23T20:25:40.546Z,12.60
2023-04-23T20:28:11.919Z,14.70
2023-04-23T20:30:40.616Z,14.03
2023-04-23T20:33:10.511Z,15.88
2023-04-23T20:35:41.894Z,15.67
2023-04-23T20:38:10.550Z,12.17
2023-04-23T20:40:39.778Z,12.13
2023-04-23T20:43:10.134Z,12.17
2023-04-23T20:45:40.270Z,13.00
2023-04-23T20:48:09.921Z,13.10
2023-04-23T20:50:38.493Z,11.40
2023-04-23T20:53:07.221Z,12.17
2023-04-23T20:55:35.858Z,19.20
2023-04-23T20:58:04.600Z,11.33
2023-04-23T21:00:35.160Z,14.45
2023-04-23T21:03:03.949Z,12.10
2023-04-23T21:05:32.714Z,11.30
2023-04-23T21:08:01.628Z,11.10
2023-04-23T21:10:30.495Z,11.53
2023-04-23T21:12:59.763Z,10.63
2023-04-23T21:15:29.662Z,12.57
2023-04-23T21:17:59.855Z,12.47
2023-04-23T21:20:28.640Z,14.13
2023-04-23T21:22:57.316Z,12.10
2023-04-23T21:25:26.775Z,12.50
2023-04-23T21:27:56.042Z,13.90
2023-04-23T21:30:33.926Z,13.60
2023-04-23T21:33:04.096Z,13.77
2023-04-23T21:35:32.893Z,13.77
2023-04-23T21:38:01.702Z,13.63
2023-04-23T21:40:30.755Z,13.60
2023-04-23T21:42:59.437Z,14.20
2023-04-23T21:45:28.243Z,17.50
2023-04-23T21:47:57.980Z,12.63
2023-04-23T21:50:29.792Z,13.60
2023-04-23T21:52:59.752Z,15.67
2023-04-23T21:55:30.891Z,15.00
2023-04-23T21:58:15.764Z,14.83
2023-04-23T22:00:46.019Z,14.03
2023-04-23T22:03:20.869Z,13.60
2023-04-23T22:06:04.352Z,14.90
2023-04-23T22:08:34.738Z,14.20
2023-04-23T22:11:03.603Z,16.83
2023-04-23T22:13:32.292Z,15.70
2023-04-23T22:16:01.793Z,14.97
2023-04-23T22:18:30.820Z,14.90
2023-04-23T22:21:00.849Z,16.33
2023-04-23T22:23:29.683Z,14.20
2023-04-23T22:25:58.396Z,15.37
2023-04-23T22:28:26.988Z,16.23
2023-04-23T22:30:55.750Z,15.53
2023-04-23T22:33:26.505Z,15.37
2023-04-23T22:35:55.359Z,15.23
2023-04-23T22:38:25.475Z,17.03
2023-04-23T22:40:54.084Z,16.53
2023-04-23T22:43:22.849Z,14.90
2023-04-23T22:45:51.855Z,15.83
2023-04-23T22:48:21.290Z,18.17
2023-04-23T22:50:51.222Z,19.10
2023-04-23T22:53:20.239Z,18.23
2023-04-23T22:55:50.538Z,20.70
2023-04-23T22:58:19.213Z,17.50
2023-04-23T23:00:47.850Z,18.70
2023-04-23T23:03:16.800Z,16.37
2023-04-23T23:05:45.690Z,16.63
2023-04-23T23:08:14.329Z,15.77
2023-04-23T23:10:43.045Z,15.97
2023-04-23T23:13:12.961Z,17.00
2023-04-23T23:15:41.656Z,16.37
2023-04-23T23:18:10.324Z,15.43
2023-04-23T23:20:40.404Z,18.40
2023-04-23T23:23:09.105Z,16.33
2023-04-23T23:25:39.007Z,14.47
2023-04-23T23:28:07.625Z,18.70
2023-04-23T23:30:37.945Z,13.53
2023-04-23T23:33:07.075Z,14.67
2023-04-23T23:35:35.832Z,15.07
2023-04-23T23:38:05.247Z,14.83
2023-04-23T23:40:33.906Z,14.13
2023-04-23T23:43:02.474Z,15.13
2023-04-23T23:45:31.150Z,15.00
2023-04-23T23:48:01.326Z,16.03
2023-04-23T23:50:30.097Z,16.73
2023-04-23T23:52:58.692Z,16.03
2023-04-23T23:55:27.441Z,17.27
2023-04-23T23:57:56.099Z,15.87
